Time;durP1;ratioP1;P1;durP2;ratioP2;P2;SDS_P1;SDS_P2;PMS_P1;PMS_P2;Temp;Humidity;BMP_temperature;BMP_pressure;BME280_temperature;BME280_humidity;BME280_pressure;Samples;Min_cycle;Max_cycle;Signal;HPM_P1;HPM_P2
2020/12/14 00:00:23;;;;;;;29.98;17.65;;;;;;;1.42;95.90;99544.50;1806225;79;21920;-55
2020/12/14 00:02:50;;;;;;;31.82;16.52;;;;;;;1.44;95.85;99547.10;1806315;79;21046;-56
2020/12/14 00:05:19;;;;;;;34.30;17.87;;;;;;;1.43;95.76;99544.08;1806267;79;21057;-56
2020/12/14 00:07:47;;;;;;;35.17;18.75;;;;;;;1.42;95.79;99542.37;1806096;79;21381;-56
2020/12/14 00:10:14;;;;;;;30.55;17.45;;;;;;;1.43;95.66;99542.80;1806292;79;23440;-55
2020/12/14 00:12:42;;;;;;;33.13;18.32;;;;;;;1.43;95.41;99550.48;1806150;79;21070;-56
2020/12/14 00:15:10;;;;;;;32.85;16.95;;;;;;;1.42;95.33;99557.31;1806216;79;21061;-57
2020/12/14 00:17:38;;;;;;;24.43;14.20;;;;;;;1.41;95.43;99560.73;1806244;78;21132;-56
2020/12/14 00:20:06;;;;;;;36.80;18.95;;;;;;;1.43;95.44;99562.02;1816756;78;21107;-56
2020/12/14 00:22:33;;;;;;;29.90;15.65;;;;;;;1.42;95.27;99560.30;1821394;78;21150;-56
2020/12/14 00:25:02;;;;;;;28.98;14.73;;;;;;;1.40;95.29;99564.14;1821423;78;21506;-56
2020/12/14 00:27:29;;;;;;;26.12;14.33;;;;;;;1.35;94.99;99564.09;1821440;78;21473;-59
2020/12/14 00:29:57;;;;;;;25.17;14.58;;;;;;;1.28;94.93;99573.86;1821423;78;21100;-56
2020/12/14 00:32:25;;;;;;;25.68;16.30;;;;;;;1.22;94.92;99575.13;1821420;78;21144;-56
2020/12/14 00:34:53;;;;;;;28.02;15.43;;;;;;;1.20;95.36;99582.34;1821400;78;21376;-56
2020/12/14 00:37:21;;;;;;;33.55;17.48;;;;;;;1.21;95.34;99581.10;1821205;78;21073;-56
2020/12/14 00:39:48;;;;;;;37.17;19.00;;;;;;;1.19;95.28;99586.61;1821335;78;21112;-56
2020/12/14 00:42:16;;;;;;;40.43;19.32;;;;;;;1.18;95.30;99589.16;1821428;78;21156;-56
2020/12/14 00:44:43;;;;;;;37.83;18.70;;;;;;;1.14;95.34;99588.30;1821381;78;21048;-56
2020/12/14 00:47:11;;;;;;;43.35;20.45;;;;;;;1.09;95.25;99596.36;1821398;78;21371;-59
2020/12/14 00:49:38;;;;;;;35.83;17.55;;;;;;;1.02;95.53;99592.03;1821320;78;21112;-56
2020/12/14 00:52:06;;;;;;;34.20;17.40;;;;;;;1.00;95.71;99594.58;1821409;78;21100;-56
2020/12/14 00:54:34;;;;;;;37.28;19.07;;;;;;;0.99;95.81;99600.55;1821328;78;21168;-56
2020/12/14 00:57:02;;;;;;;43.30;20.85;;;;;;;1.00;95.88;99601.41;1821427;78;21060;-55
2020/12/14 00:59:29;;;;;;;41.53;20.08;;;;;;;1.00;95.97;99595.00;1821331;78;21148;-57
2020/12/14 01:01:57;;;;;;;42.85;19.32;;;;;;;1.02;96.08;99599.71;1821374;78;21104;-56
2020/12/14 01:04:25;;;;;;;30.82;17.10;;;;;;;1.02;96.04;99602.27;1821353;78;21178;-55
2020/12/14 01:06:53;;;;;;;38.50;19.87;;;;;;;1.00;96.03;99597.14;1821378;78;21128;-56
2020/12/14 01:09:21;;;;;;;32.45;19.85;;;;;;;1.02;96.19;99603.13;1821410;78;21040;-56
2020/12/14 01:11:49;;;;;;;35.78;19.35;;;;;;;1.02;96.13;99602.27;1821358;78;21196;-56
2020/12/14 01:14:17;;;;;;;35.68;20.08;;;;;;;1.00;96.17;99603.97;1821338;78;21144;-55
2020/12/14 01:16:48;;;;;;;42.40;21.75;;;;;;;1.02;96.34;99607.39;1821313;78;21104;-56
2020/12/14 01:19:16;;;;;;;36.10;20.17;;;;;;;1.03;96.20;99603.98;1817867;78;21081;-56
2020/12/14 01:21:45;;;;;;;33.83;17.87;;;;;;;1.06;96.36;99606.58;1806257;79;21129;-56
2020/12/14 01:24:12;;;;;;;42.33;22.30;;;;;;;1.09;96.34;99599.77;1806274;79;23596;-56
2020/12/14 01:26:40;;;;;;;37.95;20.45;;;;;;;1.10;96.21;99600.62;1806126;79;21082;-55
2020/12/14 01:29:08;;;;;;;36.08;18.62;;;;;;;1.09;96.20;99593.80;1806216;79;21101;-56
2020/12/14 01:31:35;;;;;;;44.83;24.27;;;;;;;1.08;96.36;99592.09;1806197;79;21121;-55
2020/12/14 01:34:03;;;;;;;33.92;19.30;;;;;;;1.08;96.15;99590.80;1806167;79;21058;-56
2020/12/14 01:36:31;;;;;;;41.65;22.70;;;;;;;1.08;96.15;99584.41;1806175;79;21191;-57
2020/12/14 01:38:59;;;;;;;33.67;19.17;;;;;;;1.09;96.28;99584.83;1806145;79;21062;-55
2020/12/14 01:41:27;;;;;;;26.50;15.70;;;;;;;1.11;96.37;99587.83;1806193;79;21113;-55
2020/12/14 01:43:54;;;;;;;29.55;16.97;;;;;;;1.13;96.43;99586.55;1806263;79;21593;-56
2020/12/14 01:46:29;;;;;;;29.60;15.83;;;;;;;1.15;96.31;99582.75;1806176;79;21054;-56
2020/12/14 01:49:02;;;;;;;30.48;17.23;;;;;;;1.17;96.40;99583.61;1806333;79;21423;-56
2020/12/14 01:51:31;;;;;;;28.60;16.55;;;;;;;1.20;96.49;99580.64;1806195;78;21054;-56
2020/12/14 01:54:01;;;;;;;30.55;15.88;;;;;;;1.23;96.45;99587.08;1806152;79;21097;-56
2020/12/14 01:56:29;;;;;;;26.55;14.65;;;;;;;1.22;96.21;99582.81;1806276;79;21466;-56
2020/12/14 01:58:56;;;;;;;31.30;16.75;;;;;;;1.21;96.06;99578.54;1806133;79;21152;-56
2020/12/14 02:01:24;;;;;;;29.23;16.32;;;;;;;1.20;95.80;99584.48;1806206;79;21341;-56
2020/12/14 02:03:51;;;;;;;31.00;18.25;;;;;;;1.19;95.87;99584.05;1806044;79;21116;-56
2020/12/14 02:06:19;;;;;;;28.23;16.80;;;;;;;1.18;95.92;99582.77;1806212;79;21085;-56
2020/12/14 02:08:46;;;;;;;26.00;14.53;;;;;;;1.21;96.13;99587.50;1806340;79;21089;-56
2020/12/14 02:11:14;;;;;;;23.75;14.38;;;;;;;1.23;96.11;99583.24;1806383;79;21164;-56
2020/12/14 02:13:42;;;;;;;27.30;16.07;;;;;;;1.24;95.87;99583.67;1806404;79;21499;-55
2020/12/14 02:16:09;;;;;;;24.82;15.90;;;;;;;1.25;95.80;99580.26;1806277;79;21089;-56
2020/12/14 02:18:37;;;;;;;27.32;15.83;;;;;;;1.24;95.88;99577.27;1806261;79;21192;-56
2020/12/14 02:21:05;;;;;;;29.00;16.23;;;;;;;1.24;95.89;99583.67;1821256;78;21165;-55
2020/12/14 02:23:33;;;;;;;26.60;15.20;;;;;;;1.23;95.76;99581.11;1824090;78;21114;-55
2020/12/14 02:26:01;;;;;;;27.50;15.78;;;;;;;1.24;95.76;99584.09;1824096;78;21346;-55
2020/12/14 02:28:28;;;;;;;25.95;14.63;;;;;;;1.25;95.73;99587.94;1824028;78;21127;-55
2020/12/14 02:30:56;;;;;;;27.90;15.58;;;;;;;1.28;95.76;99581.97;1823902;78;21345;-56
2020/12/14 02:33:23;;;;;;;22.60;15.13;;;;;;;1.30;95.91;99579.88;1824117;78;21199;-56
2020/12/14 02:35:51;;;;;;;22.60;13.85;;;;;;;1.31;95.69;99582.87;1824075;78;21065;-56
2020/12/14 02:38:21;;;;;;;24.77;14.43;;;;;;;1.30;95.59;99582.44;1824227;78;22213;-55
2020/12/14 02:40:49;;;;;;;24.85;15.10;;;;;;;1.31;95.75;99586.71;1824031;78;21175;-55
2020/12/14 02:43:16;;;;;;;23.98;14.40;;;;;;;1.35;95.76;99585.02;1824086;78;21537;-55
2020/12/14 02:45:44;;;;;;;25.72;15.55;;;;;;;1.37;95.62;99591.88;1823994;78;21060;-56
2020/12/14 02:48:12;;;;;;;23.85;13.95;;;;;;;1.40;95.54;99591.03;1824159;78;21040;-56
2020/12/14 02:50:40;;;;;;;23.85;14.40;;;;;;;1.42;95.47;99591.04;1824022;78;23556;-56
2020/12/14 02:53:07;;;;;;;26.50;15.32;;;;;;;1.40;95.32;99591.03;1824044;78;21108;-56
2020/12/14 02:55:35;;;;;;;27.30;15.25;;;;;;;1.41;95.24;99593.17;1824057;78;21124;-56
2020/12/14 02:58:03;;;;;;;26.73;15.98;;;;;;;1.43;95.28;99585.06;1824172;78;21052;-56
2020/12/14 03:00:30;;;;;;;29.18;16.23;;;;;;;1.44;95.46;99578.70;1823954;78;21045;-56
2020/12/14 03:02:58;;;;;;;22.52;13.50;;;;;;;1.45;95.29;99583.39;1824075;78;21187;-56
2020/12/14 03:05:25;;;;;;;28.52;15.78;;;;;;;1.47;95.08;99582.97;1823892;78;21111;-56
2020/12/14 03:07:53;;;;;;;25.75;15.10;;;;;;;1.44;94.87;99588.09;1824031;78;21029;-55
2020/12/14 03:10:20;;;;;;;29.18;16.57;;;;;;;1.42;94.83;99596.16;1824099;78;21029;-56
2020/12/14 03:12:48;;;;;;;33.15;17.32;;;;;;;1.42;94.74;99597.45;1824023;78;21996;-57
2020/12/14 03:15:16;;;;;;;33.05;17.27;;;;;;;1.37;94.75;99601.27;1824096;78;21195;-55
2020/12/14 03:17:43;;;;;;;32.85;16.95;;;;;;;1.32;94.64;99603.79;1823944;78;21885;-56
2020/12/14 03:20:11;;;;;;;33.25;17.40;;;;;;;1.26;94.65;99598.61;1823779;78;21053;-56
2020/12/14 03:22:38;;;;;;;36.95;18.92;;;;;;;1.18;94.71;99603.25;1823963;78;21089;-57
2020/12/14 03:25:06;;;;;;;41.45;20.68;;;;;;;1.13;94.90;99598.08;1824040;78;21568;-56
2020/12/14 03:27:33;;;;;;;36.20;19.25;;;;;;;1.13;95.22;99594.66;1824025;78;21425;-55
2020/12/14 03:30:01;;;;;;;38.75;20.08;;;;;;;1.12;95.34;99588.69;1823970;78;21112;-56
2020/12/14 03:32:28;;;;;;;43.85;22.85;;;;;;;1.12;95.31;99584.84;1824053;78;21104;-56
2020/12/14 03:34:56;;;;;;;47.23;23.50;;;;;;;1.13;95.37;99589.11;1823922;78;21163;-56
2020/12/14 03:37:29;;;;;;;41.95;20.62;;;;;;;1.14;95.55;99587.02;1823929;78;21104;-56
2020/12/14 03:39:56;;;;;;;38.40;20.37;;;;;;;1.13;95.61;99592.10;1823997;78;21151;-55
2020/12/14 03:42:24;;;;;;;37.63;19.07;;;;;;;1.14;95.78;99591.28;1823998;78;21064;-56
2020/12/14 03:44:52;;;;;;;38.90;19.25;;;;;;;1.15;95.82;99595.13;1823890;78;21056;-56
2020/12/14 03:47:19;;;;;;;32.80;17.62;;;;;;;1.19;95.79;99600.69;1824001;78;22065;-56
2020/12/14 03:49:47;;;;;;;36.68;19.30;;;;;;;1.23;95.67;99597.75;1823960;78;21096;-56
2020/12/14 03:52:14;;;;;;;32.00;18.80;;;;;;;1.25;95.60;99600.75;1823959;78;22180;-55
2020/12/14 03:54:42;;;;;;;33.88;17.75;;;;;;;1.26;95.55;99599.89;1823878;78;21064;-56
2020/12/14 03:57:10;;;;;;;35.38;18.73;;;;;;;1.27;95.54;99601.61;1824031;78;21040;-56
2020/12/14 03:59:38;;;;;;;34.13;17.75;;;;;;;1.29;95.43;99604.20;1823932;78;21107;-56
2020/12/14 04:02:05;;;;;;;33.83;18.37;;;;;;;1.29;95.56;99601.64;1824031;78;21611;-56
2020/12/14 04:04:33;;;;;;;35.73;19.20;;;;;;;1.32;95.74;99600.38;1823972;78;23590;-56
2020/12/14 04:07:00;;;;;;;33.08;17.02;;;;;;;1.33;95.67;99603.36;1823942;78;21178;-56
2020/12/14 04:09:29;;;;;;;32.40;17.25;;;;;;;1.34;95.64;99614.04;1824027;78;21101;-56
2020/12/14 04:11:56;;;;;;;28.57;16.65;;;;;;;1.36;95.64;99613.22;1824035;78;21651;-56
2020/12/14 04:14:24;;;;;;;30.10;16.80;;;;;;;1.40;95.56;99615.37;1824037;78;21041;-56
2020/12/14 04:16:52;;;;;;;39.50;19.60;;;;;;;1.40;95.37;99612.81;1823976;78;21252;-56
2020/12/14 04:19:24;;;;;;;30.75;16.32;;;;;;;1.43;95.38;99616.66;1824018;78;21513;-55
2020/12/14 04:21:51;;;;;;;35.35;18.92;;;;;;;1.47;95.26;99625.24;1808359;78;21451;-56
2020/12/14 04:24:19;;;;;;;33.10;18.75;;;;;;;1.49;95.10;99623.53;1806265;79;21557;-56
2020/12/14 04:26:53;;;;;;;29.83;17.60;;;;;;;1.49;95.02;99622.26;1806179;79;21158;-56
2020/12/14 04:29:21;;;;;;;29.32;17.92;;;;;;;1.49;95.09;99625.67;1806113;79;21192;-56
2020/12/14 04:31:50;;;;;;;27.55;16.25;;;;;;;1.55;95.16;99631.27;1806227;79;21494;-55
2020/12/14 04:34:19;;;;;;;33.55;18.40;;;;;;;1.56;94.96;99630.42;1806315;79;21633;-56
2020/12/14 04:36:48;;;;;;;28.75;17.30;;;;;;;1.57;94.91;99628.29;1806165;79;21150;-56
2020/12/14 04:39:17;;;;;;;31.87;18.40;;;;;;;1.58;94.89;99624.45;1806239;79;21152;-56
2020/12/14 04:41:45;;;;;;;28.60;17.07;;;;;;;1.62;94.84;99630.47;1806201;79;21351;-56
2020/12/14 04:44:12;;;;;;;23.10;15.00;;;;;;;1.62;94.58;99631.75;1806106;79;21064;-56
2020/12/14 04:46:42;;;;;;;23.22;14.25;;;;;;;1.60;94.42;99637.30;1806112;79;21061;-55
2020/12/14 04:49:10;;;;;;;23.92;14.75;;;;;;;1.59;94.15;99638.15;1806181;78;21487;-56
2020/12/14 04:51:38;;;;;;;24.25;14.10;;;;;;;1.58;94.25;99633.42;1806291;79;21104;-56
2020/12/14 04:54:06;;;;;;;22.90;14.78;;;;;;;1.60;94.30;99640.72;1806201;79;21259;-55
2020/12/14 04:56:42;;;;;;;22.15;14.23;;;;;;;1.64;94.32;99646.27;1806179;79;21065;-56
2020/12/14 04:59:11;;;;;;;27.07;15.88;;;;;;;1.66;94.28;99652.69;1806183;79;21037;-57
2020/12/14 05:01:38;;;;;;;24.00;14.63;;;;;;;1.68;93.93;99657.84;1806236;79;21109;-56
2020/12/14 05:04:06;;;;;;;25.80;14.87;;;;;;;1.66;93.74;99662.55;1806170;79;21105;-56
2020/12/14 05:06:50;;;;;;;27.22;16.90;;;;;;;1.63;93.58;99659.94;1806206;79;21252;-56
2020/12/14 05:09:20;;;;;;;29.55;17.42;;;;;;;1.61;93.53;99667.20;1806164;79;21081;-56
2020/12/14 05:11:48;;;;;;;36.15;20.57;;;;;;;1.54;93.40;99670.55;1806127;79;21121;-56
2020/12/14 05:14:22;;;;;;;30.80;17.10;;;;;;;1.50;93.45;99672.64;1806241;79;21116;-56
2020/12/14 05:16:50;;;;;;;28.70;16.32;;;;;;;1.49;93.70;99674.35;1806224;79;21081;-56
2020/12/14 05:19:27;;;;;;;29.50;17.35;;;;;;;1.46;93.40;99673.48;1806165;78;21263;-56
2020/12/14 05:21:58;;;;;;;33.15;17.82;;;;;;;1.41;93.57;99670.88;1819674;78;21163;-57
2020/12/14 05:24:28;;;;;;;34.33;19.25;;;;;;;1.38;93.65;99681.11;1824071;78;21536;-56
2020/12/14 05:26:57;;;;;;;37.42;19.87;;;;;;;1.35;93.98;99681.06;1824047;78;21564;-57
2020/12/14 05:29:28;;;;;;;35.35;17.57;;;;;;;1.39;94.26;99678.98;1823985;78;21172;-57
2020/12/14 05:32:07;;;;;;;37.30;20.37;;;;;;;1.43;94.14;99688.81;1823924;78;21359;-57
2020/12/14 05:34:43;;;;;;;36.83;22.13;;;;;;;1.39;93.78;99696.91;1823922;78;21183;-57
2020/12/14 05:37:13;;;;;;;21.93;13.53;;;;;;;1.36;94.03;99698.14;1823937;78;21097;-56
2020/12/14 05:39:42;;;;;;;24.98;15.23;;;;;;;1.35;94.04;99696.00;1823974;78;21481;-57
2020/12/14 05:42:19;;;;;;;33.25;17.67;;;;;;;1.36;94.07;99700.31;1824118;78;21096;-56
2020/12/14 05:44:48;;;;;;;28.55;15.15;;;;;;;1.36;94.21;99700.31;1823841;78;21194;-57
2020/12/14 05:47:31;;;;;;;23.35;12.78;;;;;;;1.40;94.24;99699.90;1824087;78;21151;-56
2020/12/14 05:50:00;;;;;;;22.82;12.88;;;;;;;1.39;94.00;99709.30;1824148;78;21113;-56
2020/12/14 05:52:32;;;;;;;19.42;12.10;;;;;;;1.35;94.03;99708.81;1824160;78;21584;-56
2020/12/14 05:55:01;;;;;;;19.42;12.58;;;;;;;1.31;94.13;99710.93;1824092;78;21088;-56
2020/12/14 05:57:36;;;;;;;18.52;12.50;;;;;;;1.23;94.03;99717.69;1824246;78;22195;-57
2020/12/14 06:00:08;;;;;;;20.12;12.13;;;;;;;1.20;94.26;99716.78;1824146;78;21076;-57
2020/12/14 06:02:36;;;;;;;26.95;14.87;;;;;;;1.17;94.40;99716.34;1823468;77;21561;-57
2020/12/14 06:05:06;;;;;;;27.50;14.87;;;;;;;1.22;94.74;99718.95;1808571;77;22124;-57
2020/12/14 06:07:37;;;;;;;26.48;14.78;;;;;;;1.26;94.73;99717.70;1821049;78;21637;-57
2020/12/14 06:10:12;;;;;;;29.60;15.38;;;;;;;1.28;94.67;99721.13;1797500;78;21399;-57
2020/12/14 06:12:47;;;;;;;27.98;14.10;;;;;;;1.28;94.62;99731.37;1804130;77;21138;-58
2020/12/14 06:15:17;;;;;;;25.10;13.62;;;;;;;1.26;94.68;99736.91;1819667;77;21209;-57
2020/12/14 06:17:46;;;;;;;21.75;12.00;;;;;;;1.24;94.68;99743.73;1807175;77;21668;-57
2020/12/14 06:20:23;;;;;;;20.80;13.15;;;;;;;1.21;94.64;99751.39;1809032;77;21182;-58
2020/12/14 06:23:04;;;;;;;24.07;13.53;;;;;;;1.21;94.75;99759.08;1761178;79;21384;-56
2020/12/14 06:25:32;;;;;;;19.32;11.57;;;;;;;1.22;94.85;99757.37;1818980;77;21585;-55
2020/12/14 06:28:25;;;;;;;22.25;12.95;;;;;;;1.19;94.73;99764.58;1816344;77;21128;-56
2020/12/14 06:31:01;;;;;;;22.82;12.55;;;;;;;1.14;94.79;99768.81;1839195;76;27051;-58
2020/12/14 06:33:41;;;;;;;22.62;12.90;;;;;;;1.04;95.04;99765.27;1749336;80;21232;-58
2020/12/14 06:36:22;;;;;;;26.60;15.03;;;;;;;1.06;95.19;99764.03;1767295;79;22224;-58
2020/12/14 06:38:52;;;;;;;23.22;14.25;;;;;;;1.07;95.30;99769.16;1742263;80;21189;-56
2020/12/14 06:41:23;;;;;;;30.43;16.45;;;;;;;1.06;95.45;99766.59;1743827;80;21105;-57
2020/12/14 06:44:07;;;;;;;28.35;16.42;;;;;;;1.08;95.58;99777.70;1747063;80;21964;-56
2020/12/14 06:46:35;;;;;;;30.52;17.20;;;;;;;1.09;95.60;99784.11;1762847;79;21149;-56
2020/12/14 06:49:03;;;;;;;20.30;13.10;;;;;;;1.13;95.64;99790.11;1750007;79;21649;-57
2020/12/14 06:51:52;;;;;;;20.85;13.00;;;;;;;1.11;95.52;99791.80;1748223;80;21122;-57
2020/12/14 06:54:46;;;;;;;25.85;14.65;;;;;;;1.07;95.45;99793.91;1741334;80;21198;-56
2020/12/14 06:57:21;;;;;;;23.95;13.83;;;;;;;1.00;95.57;99793.40;1745802;80;21158;-57
2020/12/14 06:59:55;;;;;;;23.30;14.18;;;;;;;0.96;95.71;99792.91;1738567;81;21154;-56
2020/12/14 07:02:37;;;;;;;21.85;13.88;;;;;;;0.96;95.84;99796.75;1742424;80;21221;-56
2020/12/14 07:05:31;;;;;;;18.27;11.90;;;;;;;0.95;95.97;99799.73;1808244;77;21145;-57
2020/12/14 07:08:00;;;;;;;21.55;12.50;;;;;;;0.96;96.12;99796.75;1805180;77;21648;-56
2020/12/14 07:10:29;;;;;;;20.30;12.07;;;;;;;0.93;96.00;99798.86;1740757;80;21635;-56
2020/12/14 07:13:00;;;;;;;22.60;14.13;;;;;;;0.93;96.09;99804.41;1741552;79;21177;-57
2020/12/14 07:15:32;;;;;;;24.25;14.20;;;;;;;0.94;96.20;99807.40;1793768;77;21378;-57
2020/12/14 07:18:07;;;;;;;21.62;13.00;;;;;;;0.94;96.22;99814.66;1803795;77;21578;-56
2020/12/14 07:20:45;;;;;;;283.52;138.82;;;;;;;0.93;96.31;99819.34;1799133;77;21634;-56
2020/12/14 07:23:14;;;;;;;32.80;15.95;;;;;;;0.88;96.31;99820.11;1806300;77;21595;-56
2020/12/14 07:25:48;;;;;;;28.85;15.90;;;;;;;0.91;96.64;99821.42;1793383;77;21181;-57
2020/12/14 07:28:16;;;;;;;25.95;14.13;;;;;;;0.93;96.65;99824.88;1790569;77;21366;-56
2020/12/14 07:30:44;;;;;;;19.48;12.30;;;;;;;0.93;96.69;99828.72;1804653;78;21116;-56
2020/12/14 07:33:12;;;;;;;17.42;11.10;;;;;;;0.93;96.71;99826.16;1759575;81;21132;-56
2020/12/14 07:35:39;;;;;;;19.57;12.07;;;;;;;0.93;96.71;99830.00;1743778;81;21116;-56
2020/12/14 07:38:11;;;;;;;19.10;12.20;;;;;;;0.91;96.70;99836.78;1734639;80;21672;-56
2020/12/14 07:40:39;;;;;;;23.65;13.05;;;;;;;0.90;96.79;99836.34;1716040;81;22224;-56
2020/12/14 07:43:07;;;;;;;19.85;12.60;;;;;;;0.89;96.97;99826.52;1747937;81;21073;-56
2020/12/14 08:51:34;;;;;;;28.25;12.93;;;;;;;1.14;97.44;99858.43;1866120;76;28323;-59
2020/12/14 08:54:17;;;;;;;33.35;15.03;;;;;;;1.12;97.09;99856.25;1841702;77;21544;-60
2020/12/14 08:56:45;;;;;;;39.65;15.40;;;;;;;1.16;96.97;99864.42;1837647;77;21367;-60
2020/12/14 08:59:19;;;;;;;34.13;15.18;;;;;;;1.18;96.64;99862.73;1805591;78;21180;-60
2020/12/14 09:02:10;;;;;;;35.92;15.85;;;;;;;1.22;96.75;99857.24;1780484;80;21209;-60
2020/12/14 09:04:39;;;;;;;25.85;13.85;;;;;;;1.28;96.74;99858.14;1801264;78;21203;-61
2020/12/14 09:07:08;;;;;;;26.35;13.13;;;;;;;1.35;96.20;99856.52;1804229;78;21158;-60
2020/12/14 09:09:42;;;;;;;24.07;13.15;;;;;;;1.36;96.17;99850.55;1749505;78;21433;-61
2020/12/14 09:12:10;;;;;;;21.93;13.08;;;;;;;1.40;96.07;99852.31;1804048;78;21804;-59
2020/12/14 09:14:39;;;;;;;19.00;11.90;;;;;;;1.49;96.00;99850.27;1800452;78;21105;-59
2020/12/14 09:17:13;;;;;;;20.25;12.03;;;;;;;1.53;95.68;99850.33;1805765;78;21116;-58
2020/12/14 09:19:41;;;;;;;15.18;10.95;;;;;;;1.56;95.23;99853.34;1805690;78;21112;-58
2020/12/14 09:22:10;;;;;;;16.05;10.90;;;;;;;1.55;95.32;99852.48;1799739;78;21217;-59
2020/12/14 09:24:37;;;;;;;15.80;11.50;;;;;;;1.63;95.29;99853.84;1775647;80;21140;-58
2020/12/14 09:27:10;;;;;;;17.12;10.78;;;;;;;1.70;95.08;99852.20;1783037;80;21451;-59
2020/12/14 09:29:39;;;;;;;16.30;11.28;;;;;;;1.73;94.84;99851.80;1794098;78;21099;-60
2020/12/14 09:32:11;;;;;;;17.30;11.08;;;;;;;1.75;94.59;99847.56;1802230;78;21633;-59
2020/12/14 09:34:37;;;;;;;16.42;10.85;;;;;;;1.74;94.45;99847.13;1795924;78;21363;-59
2020/12/14 09:37:05;;;;;;;16.82;10.48;;;;;;;1.77;94.46;99849.71;1780650;79;21209;-59
2020/12/14 09:39:34;;;;;;;16.48;11.40;;;;;;;1.78;93.99;99851.84;1772301;80;21160;-58
2020/12/14 09:42:04;;;;;;;19.20;11.40;;;;;;;1.74;93.83;99847.13;1768001;80;21175;-59
2020/12/14 09:44:32;;;;;;;15.85;10.50;;;;;;;1.72;93.93;99845.38;1779730;80;21109;-58
2020/12/14 09:47:05;;;;;;;18.73;11.75;;;;;;;1.73;93.94;99845.39;1765232;80;22142;-58
2020/12/14 09:49:33;;;;;;;18.92;11.45;;;;;;;1.74;93.83;99853.93;1774545;79;22180;-59
2020/12/14 09:52:01;;;;;;;19.73;11.63;;;;;;;1.76;93.58;99858.67;1766290;80;21124;-60
2020/12/14 09:54:33;;;;;;;19.90;11.97;;;;;;;1.78;93.49;99854.41;1751662;81;21154;-59
2020/12/14 09:57:00;;;;;;;18.05;11.30;;;;;;;1.79;93.60;99856.13;1762315;80;21816;-59
2020/12/14 09:59:29;;;;;;;17.75;11.38;;;;;;;1.79;93.30;99858.69;1776453;80;21463;-59
2020/12/14 10:01:57;;;;;;;18.25;12.07;;;;;;;1.76;93.27;99859.95;1803451;79;21455;-59
2020/12/14 10:04:25;;;;;;;17.37;11.43;;;;;;;1.77;93.21;99857.40;1762905;80;21618;-58
2020/12/14 10:06:53;;;;;;;18.52;11.93;;;;;;;1.77;93.16;99862.53;1771399;80;21849;-58
2020/12/14 10:09:20;;;;;;;14.03;10.75;;;;;;;1.78;93.24;99859.11;1795092;79;21465;-59
2020/12/14 10:11:49;;;;;;;14.75;10.63;;;;;;;1.85;93.37;99860.03;1797125;79;21325;-58
2020/12/14 10:14:17;;;;;;;14.43;10.13;;;;;;;1.91;93.23;99861.38;1800773;79;21153;-58
2020/12/14 10:16:49;;;;;;;15.15;10.60;;;;;;;1.94;92.66;99859.69;1775694;79;21444;-59
2020/12/14 10:19:18;;;;;;;14.78;10.98;;;;;;;1.91;92.53;99862.66;1780995;79;21466;-58
2020/12/14 10:21:46;;;;;;;14.00;10.15;;;;;;;1.87;92.44;99863.46;1761627;79;21069;-60
2020/12/14 10:24:14;;;;;;;12.45;9.38;;;;;;;1.85;92.27;99865.16;1799289;79;21205;-60
2020/12/14 10:26:43;;;;;;;13.78;9.68;;;;;;;1.81;92.48;99865.96;1783383;79;21176;-58
2020/12/14 10:29:13;;;;;;;15.00;8.55;;;;;;;1.82;92.43;99867.70;1781483;79;21121;-58
2020/12/14 10:31:43;;;;;;;16.62;11.95;;;;;;;1.82;92.21;99863.44;1775463;80;21608;-60
2020/12/14 10:34:12;;;;;;;14.28;10.45;;;;;;;1.81;92.43;99859.13;1803314;79;21161;-59
2020/12/14 10:36:46;;;;;;;16.00;10.58;;;;;;;1.90;92.79;99857.96;1775387;80;21355;-58
2020/12/14 10:39:14;;;;;;;15.45;10.35;;;;;;;2.03;92.64;99856.77;1804689;79;21133;-59
2020/12/14 10:41:42;;;;;;;14.78;9.90;;;;;;;2.06;92.09;99854.25;1768695;80;21196;-59
2020/12/14 10:44:09;;;;;;;12.80;9.08;;;;;;;2.05;91.84;99851.25;1761457;80;21176;-60
2020/12/14 10:46:38;;;;;;;14.30;11.05;;;;;;;2.03;91.80;99851.63;1789557;79;21164;-59
2020/12/14 10:49:06;;;;;;;17.35;11.48;;;;;;;2.06;92.01;99849.97;1766225;80;21421;-60
2020/12/14 10:51:34;;;;;;;14.68;10.93;;;;;;;2.17;92.06;99850.91;1831163;77;21125;-59
2020/12/14 10:54:03;;;;;;;16.17;11.88;;;;;;;2.22;91.51;99854.80;1833290;78;21140;-60
2020/12/14 10:56:31;;;;;;;12.20;9.15;;;;;;;2.21;91.41;99849.23;1833688;78;21278;-59
2020/12/14 10:58:59;;;;;;;13.80;10.05;;;;;;;2.17;90.91;99846.20;1831015;78;21096;-59
2020/12/14 11:01:30;;;;;;;12.07;9.55;;;;;;;2.10;91.08;99841.87;1834462;78;21350;-59
2020/12/14 11:03:58;;;;;;;13.60;9.63;;;;;;;2.15;91.27;99846.62;1836500;77;21165;-59
2020/12/14 11:06:31;;;;;;;11.75;8.60;;;;;;;2.18;91.03;99846.63;1749970;81;21135;-61
2020/12/14 11:08:59;;;;;;;15.72;9.23;;;;;;;2.16;90.83;99848.33;1836883;78;21169;-59
2020/12/14 11:11:32;;;;;;;12.03;8.88;;;;;;;2.10;90.73;99852.12;1753092;81;21121;-60
2020/12/14 11:14:00;;;;;;;13.13;9.53;;;;;;;2.04;90.85;99852.06;1783175;80;21412;-59
2020/12/14 11:16:28;;;;;;;12.45;9.80;;;;;;;1.99;90.74;99852.47;1784306;80;21176;-59
2020/12/14 11:18:57;;;;;;;15.63;11.70;;;;;;;1.93;90.86;99850.28;1784489;80;21037;-60
2020/12/14 11:21:26;;;;;;;11.70;8.55;;;;;;;1.91;91.15;99853.27;1818940;78;21148;-59
2020/12/14 11:23:55;;;;;;;12.68;9.05;;;;;;;1.94;91.24;99850.71;1749068;81;21164;-60
2020/12/14 11:26:23;;;;;;;14.20;10.90;;;;;;;1.91;91.04;99857.53;1829193;77;21191;-60
2020/12/14 11:28:50;;;;;;;14.78;10.10;;;;;;;1.87;91.24;99859.62;1826472;78;21913;-58
2020/12/14 11:31:20;;;;;;;15.20;11.45;;;;;;;1.90;91.40;99863.52;1762668;81;21140;-58
2020/12/14 11:33:50;;;;;;;14.50;11.22;;;;;;;1.86;91.32;99852.35;1764153;81;21171;-58
2020/12/14 11:36:26;;;;;;;16.62;11.68;;;;;;;1.86;91.47;99858.77;1829594;78;21184;-58
2020/12/14 11:38:56;;;;;;;16.90;11.45;;;;;;;1.83;91.40;99856.18;1832497;78;21370;-60
2020/12/14 11:41:24;;;;;;;19.25;11.90;;;;;;;1.81;91.57;99866.82;1830030;78;21556;-60
2020/12/14 11:43:52;;;;;;;16.87;11.78;;;;;;;1.82;91.69;99863.44;1752533;81;21164;-60
2020/12/14 11:46:20;;;;;;;15.65;11.20;;;;;;;1.85;91.83;99868.58;1836650;78;21148;-60
2020/12/14 11:48:48;;;;;;;18.90;12.93;;;;;;;1.83;91.64;99861.31;1757226;81;21180;-60
2020/12/14 11:51:16;;;;;;;19.98;12.43;;;;;;;1.83;92.06;99861.31;1771348;80;21369;-60
2020/12/14 11:53:43;;;;;;;20.80;12.23;;;;;;;1.91;92.25;99857.11;1779505;80;21084;-60
2020/12/14 11:56:11;;;;;;;24.55;13.85;;;;;;;1.94;92.10;99859.69;1854363;77;21108;-60
2020/12/14 11:58:40;;;;;;;22.32;12.78;;;;;;;2.00;92.23;99859.31;1781946;80;21127;-59
2020/12/14 12:01:08;;;;;;;21.12;12.90;;;;;;;2.06;92.19;99856.81;1854511;77;21139;-57
2020/12/14 12:03:36;;;;;;;19.10;11.60;;;;;;;2.10;92.12;99865.80;1854424;77;21244;-58
2020/12/14 12:06:04;;;;;;;26.25;15.43;;;;;;;2.18;92.14;99868.43;1853853;77;21061;-60
2020/12/14 12:08:32;;;;;;;36.03;18.25;;;;;;;2.23;92.05;99864.20;1815836;78;21152;-60
2020/12/14 12:11:00;;;;;;;36.42;21.40;;;;;;;2.25;91.87;99861.22;1777640;79;21174;-60
2020/12/14 12:13:32;;;;;;;41.13;21.05;;;;;;;2.27;91.83;99856.98;1828344;77;21136;-59
2020/12/14 12:15:59;;;;;;;54.18;23.98;;;;;;;2.28;91.70;99850.15;1833774;77;21627;-60
2020/12/14 12:18:28;;;;;;;24.82;15.50;;;;;;;2.31;91.62;99851.02;1829618;77;21121;-60
2020/12/14 12:20:57;;;;;;;25.60;15.25;;;;;;;2.36;91.48;99848.07;1828798;77;21129;-60
2020/12/14 12:23:25;;;;;;;24.45;14.38;;;;;;;2.34;90.96;99852.31;1846272;77;21156;-58
2020/12/14 12:25:53;;;;;;;26.52;15.55;;;;;;;2.26;90.77;99853.95;1780230;79;21147;-59
2020/12/14 12:28:21;;;;;;;29.32;16.48;;;;;;;2.17;90.79;99854.75;1850606;77;21158;-57
2020/12/14 12:30:49;;;;;;;23.50;14.63;;;;;;;2.14;91.02;99854.73;1852300;77;21179;-59
2020/12/14 12:33:17;;;;;;;25.35;15.45;;;;;;;2.10;90.83;99852.12;1845020;77;21033;-58
2020/12/14 12:35:45;;;;;;;31.93;17.25;;;;;;;2.01;90.76;99864.87;1780923;80;21829;-59
2020/12/14 12:38:13;;;;;;;28.65;16.45;;;;;;;1.86;90.92;99863.89;1854033;77;21061;-59
2020/12/14 12:40:42;;;;;;;29.92;18.02;;;;;;;1.81;91.40;99860.41;1847437;77;21390;-59
2020/12/14 12:43:10;;;;;;;29.75;17.15;;;;;;;1.82;91.67;99864.72;1780138;80;21131;-59